sensor_id;sensor_type;location;lat;lon;timestamp;temperature;humidity
360;DHT22;168;48.872;9.226;2024-02-26T00:00:07;10.10;79.10
360;DHT22;168;48.872;9.226;2024-02-26T00:02:36;10.10;78.60
360;DHT22;168;48.872;9.226;2024-02-26T00:05:05;10.20;78.10
360;DHT22;168;48.872;9.226;2024-02-26T00:07:32;10.10;78.20
360;DHT22;168;48.872;9.226;2024-02-26T00:10:00;10.10;78.50
360;DHT22;168;48.872;9.226;2024-02-26T00:12:27;10.10;78.30
360;DHT22;168;48.872;9.226;2024-02-26T00:14:54;10.20;78.90
360;DHT22;168;48.872;9.226;2024-02-26T00:17:25;10.20;78.20
360;DHT22;168;48.872;9.226;2024-02-26T00:19:52;10.20;78.10
360;DHT22;168;48.872;9.226;2024-02-26T00:22:20;10.20;78.00
360;DHT22;168;48.872;9.226;2024-02-26T00:24:48;10.10;78.50
360;DHT22;168;48.872;9.226;2024-02-26T00:27:15;10.10;78.20
360;DHT22;168;48.872;9.226;2024-02-26T00:29:42;10.10;78.10
360;DHT22;168;48.872;9.226;2024-02-26T00:32:09;10.10;78.20
360;DHT22;168;48.872;9.226;2024-02-26T00:34:38;10.10;78.20
360;DHT22;168;48.872;9.226;2024-02-26T00:37:05;10.00;78.40
360;DHT22;168;48.872;9.226;2024-02-26T00:39:33;10.00;78.70
360;DHT22;168;48.872;9.226;2024-02-26T00:42:00;10.00;78.50
360;DHT22;168;48.872;9.226;2024-02-26T00:44:28;9.90;79.00
360;DHT22;168;48.872;9.226;2024-02-26T00:46:56;9.90;79.60
360;DHT22;168;48.872;9.226;2024-02-26T00:49:23;9.90;79.30
360;DHT22;168;48.872;9.226;2024-02-26T00:51:52;10.00;80.00
360;DHT22;168;48.872;9.226;2024-02-26T00:54:19;10.00;79.90
360;DHT22;168;48.872;9.226;2024-02-26T00:56:46;10.00;79.70
360;DHT22;168;48.872;9.226;2024-02-26T00:59:14;10.00;79.70
360;DHT22;168;48.872;9.226;2024-02-26T01:01:41;10.10;79.10
360;DHT22;168;48.872;9.226;2024-02-26T01:04:08;10.10;78.60
360;DHT22;168;48.872;9.226;2024-02-26T01:06:35;10.10;78.20
360;DHT22;168;48.872;9.226;2024-02-26T01:09:03;10.10;78.20
360;DHT22;168;48.872;9.226;2024-02-26T01:11:31;10.20;77.60
360;DHT22;168;48.872;9.226;2024-02-26T01:13:58;10.20;77.50
360;DHT22;168;48.872;9.226;2024-02-26T01:16:25;10.20;77.50
360;DHT22;168;48.872;9.226;2024-02-26T01:18:55;10.20;77.20
360;DHT22;168;48.872;9.226;2024-02-26T01:21:22;10.20;76.80
360;DHT22;168;48.872;9.226;2024-02-26T01:23:49;10.10;77.50
360;DHT22;168;48.872;9.226;2024-02-26T01:26:18;10.10;77.00
360;DHT22;168;48.872;9.226;2024-02-26T01:28:45;10.10;76.60
360;DHT22;168;48.872;9.226;2024-02-26T01:31:12;10.10;76.30
360;DHT22;168;48.872;9.226;2024-02-26T01:33:40;10.10;76.50
360;DHT22;168;48.872;9.226;2024-02-26T01:36:07;10.10;76.20
360;DHT22;168;48.872;9.226;2024-02-26T01:38:34;10.00;76.50
360;DHT22;168;48.872;9.226;2024-02-26T01:41:02;10.00;76.90
360;DHT22;168;48.872;9.226;2024-02-26T01:43:30;10.00;76.50
360;DHT22;168;48.872;9.226;2024-02-26T01:45:58;10.00;76.20
360;DHT22;168;48.872;9.226;2024-02-26T01:48:25;10.00;76.70
360;DHT22;168;48.872;9.226;2024-02-26T01:50:53;10.00;77.00
360;DHT22;168;48.872;9.226;2024-02-26T01:53:21;10.00;76.20
360;DHT22;168;48.872;9.226;2024-02-26T01:55:48;10.00;76.80
360;DHT22;168;48.872;9.226;2024-02-26T01:58:16;10.00;76.60
360;DHT22;168;48.872;9.226;2024-02-26T02:00:45;10.00;75.80
360;DHT22;168;48.872;9.226;2024-02-26T02:03:12;10.10;75.70
360;DHT22;168;48.872;9.226;2024-02-26T02:05:39;10.00;76.10
360;DHT22;168;48.872;9.226;2024-02-26T02:08:08;10.00;76.40
360;DHT22;168;48.872;9.226;2024-02-26T02:10:36;10.00;75.90
360;DHT22;168;48.872;9.226;2024-02-26T02:13:04;10.00;76.40
360;DHT22;168;48.872;9.226;2024-02-26T02:15:31;10.10;75.60
360;DHT22;168;48.872;9.226;2024-02-26T02:18:00;10.10;75.10
360;DHT22;168;48.872;9.226;2024-02-26T02:20:32;10.20;74.70
360;DHT22;168;48.872;9.226;2024-02-26T02:23:00;10.20;75.20
360;DHT22;168;48.872;9.226;2024-02-26T02:25:27;10.30;75.10
360;DHT22;168;48.872;9.226;2024-02-26T02:27:55;10.20;74.50
360;DHT22;168;48.872;9.226;2024-02-26T02:30:25;10.20;75.10
360;DHT22;168;48.872;9.226;2024-02-26T02:32:53;10.10;75.40
360;DHT22;168;48.872;9.226;2024-02-26T02:35:22;10.10;75.50
360;DHT22;168;48.872;9.226;2024-02-26T02:37:52;10.10;75.20
360;DHT22;168;48.872;9.226;2024-02-26T02:40:19;10.20;75.10
360;DHT22;168;48.872;9.226;2024-02-26T02:42:46;10.10;76.20
360;DHT22;168;48.872;9.226;2024-02-26T02:45:14;10.20;75.60
360;DHT22;168;48.872;9.226;2024-02-26T02:47:41;10.10;76.80
360;DHT22;168;48.872;9.226;2024-02-26T02:50:09;10.10;77.00
360;DHT22;168;48.872;9.226;2024-02-26T02:52:36;10.20;76.10
360;DHT22;168;48.872;9.226;2024-02-26T02:55:05;10.20;75.00
360;DHT22;168;48.872;9.226;2024-02-26T02:57:33;10.20;75.50
360;DHT22;168;48.872;9.226;2024-02-26T03:00:00;10.10;76.00
360;DHT22;168;48.872;9.226;2024-02-26T03:02:29;10.10;77.10
360;DHT22;168;48.872;9.226;2024-02-26T03:04:57;10.10;76.20
360;DHT22;168;48.872;9.226;2024-02-26T03:07:24;10.10;76.50
360;DHT22;168;48.872;9.226;2024-02-26T03:09:51;10.20;75.40
360;DHT22;168;48.872;9.226;2024-02-26T03:12:20;10.30;74.90
360;DHT22;168;48.872;9.226;2024-02-26T03:14:47;10.20;77.80
360;DHT22;168;48.872;9.226;2024-02-26T03:17:15;10.10;78.60
360;DHT22;168;48.872;9.226;2024-02-26T03:19:44;10.00;80.50
360;DHT22;168;48.872;9.226;2024-02-26T03:22:12;10.00;80.80
360;DHT22;168;48.872;9.226;2024-02-26T03:24:40;10.00;80.80
360;DHT22;168;48.872;9.226;2024-02-26T03:27:07;9.90;80.50
360;DHT22;168;48.872;9.226;2024-02-26T03:29:37;9.90;79.80
360;DHT22;168;48.872;9.226;2024-02-26T03:32:05;10.00;80.30
360;DHT22;168;48.872;9.226;2024-02-26T03:34:33;10.00;81.00
360;DHT22;168;48.872;9.226;2024-02-26T03:37:01;10.00;81.90
360;DHT22;168;48.872;9.226;2024-02-26T03:39:28;9.90;81.80
360;DHT22;168;48.872;9.226;2024-02-26T03:41:55;9.90;81.50
360;DHT22;168;48.872;9.226;2024-02-26T03:44:23;9.90;81.10
360;DHT22;168;48.872;9.226;2024-02-26T03:46:51;9.90;80.30
360;DHT22;168;48.872;9.226;2024-02-26T03:49:19;9.80;80.50
360;DHT22;168;48.872;9.226;2024-02-26T03:51:46;9.70;81.50
360;DHT22;168;48.872;9.226;2024-02-26T03:54:13;9.60;83.40
360;DHT22;168;48.872;9.226;2024-02-26T03:56:40;9.60;84.50
360;DHT22;168;48.872;9.226;2024-02-26T03:59:08;9.60;84.30
360;DHT22;168;48.872;9.226;2024-02-26T04:01:35;9.70;84.20
360;DHT22;168;48.872;9.226;2024-02-26T04:04:04;9.50;85.60
360;DHT22;168;48.872;9.226;2024-02-26T04:06:31;9.40;86.60
360;DHT22;168;48.872;9.226;2024-02-26T04:08:58;9.40;86.50
360;DHT22;168;48.872;9.226;2024-02-26T04:11:26;9.30;87.90
360;DHT22;168;48.872;9.226;2024-02-26T04:13:54;9.20;88.90
360;DHT22;168;48.872;9.226;2024-02-26T04:16:21;9.20;89.30
360;DHT22;168;48.872;9.226;2024-02-26T04:18:48;9.10;89.30
360;DHT22;168;48.872;9.226;2024-02-26T04:21:17;9.20;88.00
360;DHT22;168;48.872;9.226;2024-02-26T04:23:44;9.20;88.40
360;DHT22;168;48.872;9.226;2024-02-26T04:26:12;9.20;88.70
360;DHT22;168;48.872;9.226;2024-02-26T04:28:39;9.20;88.30
360;DHT22;168;48.872;9.226;2024-02-26T04:31:06;9.30;86.70
360;DHT22;168;48.872;9.226;2024-02-26T04:33:34;9.20;86.70
360;DHT22;168;48.872;9.226;2024-02-26T04:36:02;9.20;85.70
360;DHT22;168;48.872;9.226;2024-02-26T04:38:30;9.30;84.40
360;DHT22;168;48.872;9.226;2024-02-26T04:40:58;9.30;84.30
360;DHT22;168;48.872;9.226;2024-02-26T04:43:25;9.20;84.70
360;DHT22;168;48.872;9.226;2024-02-26T04:45:52;9.20;84.70
360;DHT22;168;48.872;9.226;2024-02-26T04:48:20;9.10;85.50
360;DHT22;168;48.872;9.226;2024-02-26T04:50:47;9.20;85.20
360;DHT22;168;48.872;9.226;2024-02-26T04:53:15;9.10;85.60
360;DHT22;168;48.872;9.226;2024-02-26T04:55:43;9.10;85.60
360;DHT22;168;48.872;9.226;2024-02-26T04:58:11;9.10;85.60
360;DHT22;168;48.872;9.226;2024-02-26T05:00:38;9.10;85.30
360;DHT22;168;48.872;9.226;2024-02-26T05:03:05;9.30;84.70
360;DHT22;168;48.872;9.226;2024-02-26T05:05:33;9.20;84.80
360;DHT22;168;48.872;9.226;2024-02-26T05:08:01;9.30;83.60
360;DHT22;168;48.872;9.226;2024-02-26T05:10:29;9.20;84.20
360;DHT22;168;48.872;9.226;2024-02-26T05:12:58;9.20;84.50
360;DHT22;168;48.872;9.226;2024-02-26T05:15:25;9.20;84.10
360;DHT22;168;48.872;9.226;2024-02-26T05:17:52;9.10;84.80
360;DHT22;168;48.872;9.226;2024-02-26T05:20:20;9.00;86.20
360;DHT22;168;48.872;9.226;2024-02-26T05:22:47;9.00;86.10
360;DHT22;168;48.872;9.226;2024-02-26T05:25:15;9.10;86.90
360;DHT22;168;48.872;9.226;2024-02-26T05:27:43;9.10;85.90
360;DHT22;168;48.872;9.226;2024-02-26T05:30:13;9.20;85.50
360;DHT22;168;48.872;9.226;2024-02-26T05:32:40;9.20;85.70
360;DHT22;168;48.872;9.226;2024-02-26T05:35:08;9.20;85.50
360;DHT22;168;48.872;9.226;2024-02-26T05:37:35;9.30;84.50
360;DHT22;168;48.872;9.226;2024-02-26T05:40:03;9.30;84.60
360;DHT22;168;48.872;9.226;2024-02-26T05:42:31;9.40;83.00
360;DHT22;168;48.872;9.226;2024-02-26T05:44:59;9.50;82.70
360;DHT22;168;48.872;9.226;2024-02-26T05:47:33;9.40;82.30
360;DHT22;168;48.872;9.226;2024-02-26T05:50:01;9.40;82.70
360;DHT22;168;48.872;9.226;2024-02-26T05:52:28;9.40;83.40
360;DHT22;168;48.872;9.226;2024-02-26T05:54:57;9.40;84.20
360;DHT22;168;48.872;9.226;2024-02-26T05:57:24;9.50;84.00
360;DHT22;168;48.872;9.226;2024-02-26T05:59:52;9.50;83.50
360;DHT22;168;48.872;9.226;2024-02-26T06:02:19;9.50;83.60
360;DHT22;168;48.872;9.226;2024-02-26T06:04:48;9.50;84.70
360;DHT22;168;48.872;9.226;2024-02-26T06:07:15;9.50;85.60
360;DHT22;168;48.872;9.226;2024-02-26T06:09:42;9.50;86.50
360;DHT22;168;48.872;9.226;2024-02-26T06:12:10;9.60;83.90
360;DHT22;168;48.872;9.226;2024-02-26T06:14:37;9.70;82.90
360;DHT22;168;48.872;9.226;2024-02-26T06:17:04;9.50;83.70
360;DHT22;168;48.872;9.226;2024-02-26T06:19:33;9.50;82.80
360;DHT22;168;48.872;9.226;2024-02-26T06:22:02;9.70;83.00
360;DHT22;168;48.872;9.226;2024-02-26T06:24:29;9.60;84.90
360;DHT22;168;48.872;9.226;2024-02-26T06:26:56;9.30;86.20
360;DHT22;168;48.872;9.226;2024-02-26T06:29:24;9.30;88.00
360;DHT22;168;48.872;9.226;2024-02-26T06:31:51;9.20;89.60
360;DHT22;168;48.872;9.226;2024-02-26T06:34:18;9.20;89.30
360;DHT22;168;48.872;9.226;2024-02-26T06:36:46;9.20;86.60
360;DHT22;168;48.872;9.226;2024-02-26T06:39:15;9.20;86.80
360;DHT22;168;48.872;9.226;2024-02-26T06:41:42;9.30;85.80
360;DHT22;168;48.872;9.226;2024-02-26T06:44:09;9.30;85.50
360;DHT22;168;48.872;9.226;2024-02-26T06:46:37;9.30;89.80
360;DHT22;168;48.872;9.226;2024-02-26T06:49:04;9.20;89.10
360;DHT22;168;48.872;9.226;2024-02-26T06:51:31;9.20;90.10
360;DHT22;168;48.872;9.226;2024-02-26T06:53:59;9.30;91.80
360;DHT22;168;48.872;9.226;2024-02-26T06:56:27;9.30;90.80
360;DHT22;168;48.872;9.226;2024-02-26T06:58:54;9.40;91.00
360;DHT22;168;48.872;9.226;2024-02-26T07:01:22;9.50;91.30
360;DHT22;168;48.872;9.226;2024-02-26T07:03:49;9.50;90.50
360;DHT22;168;48.872;9.226;2024-02-26T07:06:17;9.60;89.30
360;DHT22;168;48.872;9.226;2024-02-26T07:08:44;9.60;89.30
360;DHT22;168;48.872;9.226;2024-02-26T07:11:12;9.60;88.80
360;DHT22;168;48.872;9.226;2024-02-26T07:13:40;9.60;88.80
360;DHT22;168;48.872;9.226;2024-02-26T07:16:09;9.60;88.90
360;DHT22;168;48.872;9.226;2024-02-26T07:18:37;9.70;88.70
360;DHT22;168;48.872;9.226;2024-02-26T07:21:04;9.70;89.00
360;DHT22;168;48.872;9.226;2024-02-26T07:23:32;9.80;89.50
360;DHT22;168;48.872;9.226;2024-02-26T07:25:59;9.90;89.00
360;DHT22;168;48.872;9.226;2024-02-26T07:28:27;9.90;88.70
360;DHT22;168;48.872;9.226;2024-02-26T07:30:56;10.00;88.50
360;DHT22;168;48.872;9.226;2024-02-26T07:33:23;10.10;88.80
360;DHT22;168;48.872;9.226;2024-02-26T07:35:50;10.10;88.90
360;DHT22;168;48.872;9.226;2024-02-26T07:38:19;10.20;88.60
360;DHT22;168;48.872;9.226;2024-02-26T07:40:47;10.20;88.40
360;DHT22;168;48.872;9.226;2024-02-26T07:43:14;10.30;88.00
360;DHT22;168;48.872;9.226;2024-02-26T07:45:41;10.30;87.90
360;DHT22;168;48.872;9.226;2024-02-26T07:48:10;10.30;87.20
360;DHT22;168;48.872;9.226;2024-02-26T07:50:39;10.30;87.00
360;DHT22;168;48.872;9.226;2024-02-26T07:53:07;10.40;86.90
360;DHT22;168;48.872;9.226;2024-02-26T07:55:34;10.40;87.20
360;DHT22;168;48.872;9.226;2024-02-26T07:58:05;10.50;87.40
360;DHT22;168;48.872;9.226;2024-02-26T08:00:34;10.50;87.50
360;DHT22;168;48.872;9.226;2024-02-26T08:03:03;10.60;87.20
360;DHT22;168;48.872;9.226;2024-02-26T08:05:31;10.70;86.70
360;DHT22;168;48.872;9.226;2024-02-26T08:07:59;10.70;87.10
360;DHT22;168;48.872;9.226;2024-02-26T08:10:28;10.70;87.60
360;DHT22;168;48.872;9.226;2024-02-26T08:13:05;10.80;88.30
360;DHT22;168;48.872;9.226;2024-02-26T08:15:34;10.90;88.00
360;DHT22;168;48.872;9.226;2024-02-26T08:18:03;10.90;87.70
360;DHT22;168;48.872;9.226;2024-02-26T08:20:32;11.00;88.00
360;DHT22;168;48.872;9.226;2024-02-26T08:22:59;11.00;88.00
360;DHT22;168;48.872;9.226;2024-02-26T08:25:27;11.10;87.20
360;DHT22;168;48.872;9.226;2024-02-26T08:27:53;11.10;87.80
360;DHT22;168;48.872;9.226;2024-02-26T08:30:20;11.10;88.30
360;DHT22;168;48.872;9.226;2024-02-26T08:32:48;11.20;87.50
360;DHT22;168;48.872;9.226;2024-02-26T08:35:16;11.20;87.50
360;DHT22;168;48.872;9.226;2024-02-26T08:37:46;11.20;88.10
360;DHT22;168;48.872;9.226;2024-02-26T08:40:14;11.20;89.00
360;DHT22;168;48.872;9.226;2024-02-26T08:42:41;11.20;88.90
360;DHT22;168;48.872;9.226;2024-02-26T08:45:09;11.10;89.40
360;DHT22;168;48.872;9.226;2024-02-26T08:47:37;11.10;89.10
360;DHT22;168;48.872;9.226;2024-02-26T08:50:05;11.10;89.30
360;DHT22;168;48.872;9.226;2024-02-26T08:52:33;11.10;89.00
360;DHT22;168;48.872;9.226;2024-02-26T08:55:01;11.10;89.30
360;DHT22;168;48.872;9.226;2024-02-26T08:57:29;11.20;88.40
360;DHT22;168;48.872;9.226;2024-02-26T08:59:58;11.30;87.50
360;DHT22;168;48.872;9.226;2024-02-26T09:02:26;11.40;87.60
360;DHT22;168;48.872;9.226;2024-02-26T09:04:54;11.60;87.00
360;DHT22;168;48.872;9.226;2024-02-26T09:07:23;11.70;86.00
360;DHT22;168;48.872;9.226;2024-02-26T09:09:50;11.80;85.50
360;DHT22;168;48.872;9.226;2024-02-26T09:12:19;11.90;85.40
360;DHT22;168;48.872;9.226;2024-02-26T09:14:47;12.00;85.50
360;DHT22;168;48.872;9.226;2024-02-26T09:17:14;12.00;85.40
360;DHT22;168;48.872;9.226;2024-02-26T09:19:41;12.10;85.20
360;DHT22;168;48.872;9.226;2024-02-26T09:22:10;12.20;84.40
360;DHT22;168;48.872;9.226;2024-02-26T09:24:37;12.30;84.30
360;DHT22;168;48.872;9.226;2024-02-26T09:27:04;12.40;83.80
360;DHT22;168;48.872;9.226;2024-02-26T09:29:35;12.50;83.80
360;DHT22;168;48.872;9.226;2024-02-26T09:32:03;12.40;83.80
360;DHT22;168;48.872;9.226;2024-02-26T09:34:31;12.40;84.70
360;DHT22;168;48.872;9.226;2024-02-26T09:36:59;12.30;86.10
360;DHT22;168;48.872;9.226;2024-02-26T09:39:27;12.30;86.10
360;DHT22;168;48.872;9.226;2024-02-26T09:41:55;12.30;86.50
360;DHT22;168;48.872;9.226;2024-02-26T09:44:24;12.30;86.90
360;DHT22;168;48.872;9.226;2024-02-26T09:46:53;12.30;87.10
360;DHT22;168;48.872;9.226;2024-02-26T09:49:22;12.40;87.40
360;DHT22;168;48.872;9.226;2024-02-26T09:51:51;12.50;86.90
360;DHT22;168;48.872;9.226;2024-02-26T09:54:20;12.50;87.20
360;DHT22;168;48.872;9.226;2024-02-26T09:56:49;12.60;86.10
360;DHT22;168;48.872;9.226;2024-02-26T09:59:17;12.60;87.10
360;DHT22;168;48.872;9.226;2024-02-26T10:01:46;12.70;87.30
360;DHT22;168;48.872;9.226;2024-02-26T10:04:16;13.00;87.00
360;DHT22;168;48.872;9.226;2024-02-26T10:06:45;13.20;85.90
360;DHT22;168;48.872;9.226;2024-02-26T10:09:13;13.40;85.50
360;DHT22;168;48.872;9.226;2024-02-26T10:11:42;13.70;85.30
360;DHT22;168;48.872;9.226;2024-02-26T10:14:10;13.80;83.50
360;DHT22;168;48.872;9.226;2024-02-26T10:16:38;14.10;83.60
360;DHT22;168;48.872;9.226;2024-02-26T10:19:06;14.20;82.60
360;DHT22;168;48.872;9.226;2024-02-26T10:21:34;14.40;81.60
360;DHT22;168;48.872;9.226;2024-02-26T10:24:02;14.40;81.10
360;DHT22;168;48.872;9.226;2024-02-26T10:26:29;14.40;80.50
360;DHT22;168;48.872;9.226;2024-02-26T10:28:59;14.50;80.70
360;DHT22;168;48.872;9.226;2024-02-26T10:31:28;14.60;79.80
360;DHT22;168;48.872;9.226;2024-02-26T10:33:56;14.80;79.30
360;DHT22;168;48.872;9.226;2024-02-26T10:36:26;14.90;77.90
360;DHT22;168;48.872;9.226;2024-02-26T10:38:55;15.00;76.90
360;DHT22;168;48.872;9.226;2024-02-26T10:41:22;15.10;75.60
360;DHT22;168;48.872;9.226;2024-02-26T10:43:50;15.20;76.60
360;DHT22;168;48.872;9.226;2024-02-26T10:46:18;15.30;75.80
360;DHT22;168;48.872;9.226;2024-02-26T10:48:50;15.40;75.70
360;DHT22;168;48.872;9.226;2024-02-26T10:51:20;15.50;75.70
360;DHT22;168;48.872;9.226;2024-02-26T10:53:49;15.70;76.00
360;DHT22;168;48.872;9.226;2024-02-26T10:56:22;15.90;75.20
360;DHT22;168;48.872;9.226;2024-02-26T10:58:52;16.00;74.10
360;DHT22;168;48.872;9.226;2024-02-26T11:01:19;16.10;74.20
360;DHT22;168;48.872;9.226;2024-02-26T11:03:48;16.10;74.00
360;DHT22;168;48.872;9.226;2024-02-26T11:06:17;16.10;73.30
360;DHT22;168;48.872;9.226;2024-02-26T11:08:48;16.20;73.10
360;DHT22;168;48.872;9.226;2024-02-26T11:11:16;16.20;72.50
360;DHT22;168;48.872;9.226;2024-02-26T11:13:47;16.30;72.20
360;DHT22;168;48.872;9.226;2024-02-26T11:16:18;16.30;72.00
360;DHT22;168;48.872;9.226;2024-02-26T11:18:48;16.20;73.10
360;DHT22;168;48.872;9.226;2024-02-26T11:21:16;16.10;72.40
360;DHT22;168;48.872;9.226;2024-02-26T11:23:45;16.10;70.10
360;DHT22;168;48.872;9.226;2024-02-26T11:26:15;16.00;69.90
360;DHT22;168;48.872;9.226;2024-02-26T11:28:45;15.90;70.20
360;DHT22;168;48.872;9.226;2024-02-26T11:31:13;15.90;70.70
360;DHT22;168;48.872;9.226;2024-02-26T11:33:41;15.80;71.10
360;DHT22;168;48.872;9.226;2024-02-26T11:36:09;15.70;71.20
360;DHT22;168;48.872;9.226;2024-02-26T11:38:37;15.70;70.20
360;DHT22;168;48.872;9.226;2024-02-26T11:41:05;15.70;70.80
360;DHT22;168;48.872;9.226;2024-02-26T11:43:52;15.60;72.30
360;DHT22;168;48.872;9.226;2024-02-26T11:46:27;15.60;70.90
360;DHT22;168;48.872;9.226;2024-02-26T11:48:58;15.70;68.80
360;DHT22;168;48.872;9.226;2024-02-26T11:51:26;15.60;68.30
360;DHT22;168;48.872;9.226;2024-02-26T11:53:54;15.40;69.10
360;DHT22;168;48.872;9.226;2024-02-26T11:56:24;15.40;69.10
360;DHT22;168;48.872;9.226;2024-02-26T11:59:04;15.30;69.80
360;DHT22;168;48.872;9.226;2024-02-26T12:01:45;15.20;70.30
360;DHT22;168;48.872;9.226;2024-02-26T12:04:18;15.30;71.70
360;DHT22;168;48.872;9.226;2024-02-26T12:06:48;15.40;71.90
360;DHT22;168;48.872;9.226;2024-02-26T12:09:36;15.50;71.80
360;DHT22;168;48.872;9.226;2024-02-26T12:12:05;15.60;71.50
360;DHT22;168;48.872;9.226;2024-02-26T12:14:37;15.70;72.10
360;DHT22;168;48.872;9.226;2024-02-26T12:17:04;15.80;70.40
360;DHT22;168;48.872;9.226;2024-02-26T12:19:34;15.80;71.00
360;DHT22;168;48.872;9.226;2024-02-26T12:22:02;15.80;71.20
360;DHT22;168;48.872;9.226;2024-02-26T12:24:31;15.90;72.00
360;DHT22;168;48.872;9.226;2024-02-26T12:26:58;15.90;71.50
360;DHT22;168;48.872;9.226;2024-02-26T12:29:25;16.00;70.90
360;DHT22;168;48.872;9.226;2024-02-26T12:31:54;16.10;71.00
360;DHT22;168;48.872;9.226;2024-02-26T12:34:21;16.20;70.10
360;DHT22;168;48.872;9.226;2024-02-26T12:36:49;16.50;69.60
360;DHT22;168;48.872;9.226;2024-02-26T12:39:16;16.70;69.00
360;DHT22;168;48.872;9.226;2024-02-26T12:41:46;16.90;67.40
360;DHT22;168;48.872;9.226;2024-02-26T12:44:15;17.00;66.40
360;DHT22;168;48.872;9.226;2024-02-26T12:46:43;17.00;66.40
360;DHT22;168;48.872;9.226;2024-02-26T12:49:15;17.10;66.40
360;DHT22;168;48.872;9.226;2024-02-26T12:51:44;17.20;66.40
360;DHT22;168;48.872;9.226;2024-02-26T12:54:12;17.30;65.90
360;DHT22;168;48.872;9.226;2024-02-26T12:56:40;17.40;64.70
360;DHT22;168;48.872;9.226;2024-02-26T12:59:08;17.30;64.20
360;DHT22;168;48.872;9.226;2024-02-26T13:01:36;17.20;65.60
360;DHT22;168;48.872;9.226;2024-02-26T13:04:03;17.10;65.20
360;DHT22;168;48.872;9.226;2024-02-26T13:06:34;17.00;65.60
360;DHT22;168;48.872;9.226;2024-02-26T13:09:01;16.80;66.80
360;DHT22;168;48.872;9.226;2024-02-26T13:11:30;16.80;65.80
360;DHT22;168;48.872;9.226;2024-02-26T13:13:58;16.70;66.40
360;DHT22;168;48.872;9.226;2024-02-26T13:16:25;16.70;67.00
360;DHT22;168;48.872;9.226;2024-02-26T13:18:53;16.80;67.20
360;DHT22;168;48.872;9.226;2024-02-26T13:21:21;17.00;66.90
360;DHT22;168;48.872;9.226;2024-02-26T13:23:52;17.10;66.40
360;DHT22;168;48.872;9.226;2024-02-26T13:26:22;17.20;65.40
360;DHT22;168;48.872;9.226;2024-02-26T13:29:00;17.40;64.50
360;DHT22;168;48.872;9.226;2024-02-26T13:31:27;17.30;64.90
360;DHT22;168;48.872;9.226;2024-02-26T13:33:54;17.30;65.00
360;DHT22;168;48.872;9.226;2024-02-26T13:36:22;17.40;64.10
360;DHT22;168;48.872;9.226;2024-02-26T13:38:54;17.40;64.00
360;DHT22;168;48.872;9.226;2024-02-26T13:41:22;17.30;64.40
360;DHT22;168;48.872;9.226;2024-02-26T13:43:50;17.20;65.50
360;DHT22;168;48.872;9.226;2024-02-26T13:46:17;17.20;64.30
360;DHT22;168;48.872;9.226;2024-02-26T13:48:45;17.20;64.50
360;DHT22;168;48.872;9.226;2024-02-26T13:51:12;17.10;64.30
360;DHT22;168;48.872;9.226;2024-02-26T13:53:40;17.20;63.80
360;DHT22;168;48.872;9.226;2024-02-26T13:56:10;17.10;64.40
360;DHT22;168;48.872;9.226;2024-02-26T13:58:37;17.00;64.80
360;DHT22;168;48.872;9.226;2024-02-26T14:01:04;16.90;65.40
360;DHT22;168;48.872;9.226;2024-02-26T14:03:32;17.00;65.40
360;DHT22;168;48.872;9.226;2024-02-26T14:05:59;17.10;64.10
360;DHT22;168;48.872;9.226;2024-02-26T14:08:26;17.10;64.40
360;DHT22;168;48.872;9.226;2024-02-26T14:10:53;17.10;63.80
360;DHT22;168;48.872;9.226;2024-02-26T14:13:22;17.20;63.20
360;DHT22;168;48.872;9.226;2024-02-26T14:15:49;17.20;63.20
360;DHT22;168;48.872;9.226;2024-02-26T14:18:17;17.20;63.20
360;DHT22;168;48.872;9.226;2024-02-26T14:20:44;17.20;63.10
360;DHT22;168;48.872;9.226;2024-02-26T14:23:11;17.20;63.50
360;DHT22;168;48.872;9.226;2024-02-26T14:25:39;17.20;64.00
360;DHT22;168;48.872;9.226;2024-02-26T14:28:06;17.30;62.90
360;DHT22;168;48.872;9.226;2024-02-26T14:30:35;17.30;63.40
360;DHT22;168;48.872;9.226;2024-02-26T14:33:02;17.30;64.00
360;DHT22;168;48.872;9.226;2024-02-26T14:35:29;17.30;63.50
360;DHT22;168;48.872;9.226;2024-02-26T14:37:57;17.30;63.90
360;DHT22;168;48.872;9.226;2024-02-26T14:40:26;17.40;63.20
360;DHT22;168;48.872;9.226;2024-02-26T14:42:54;17.40;62.40
360;DHT22;168;48.872;9.226;2024-02-26T14:45:23;17.40;62.50
360;DHT22;168;48.872;9.226;2024-02-26T14:47:52;17.40;62.70
360;DHT22;168;48.872;9.226;2024-02-26T14:50:19;17.40;63.80
360;DHT22;168;48.872;9.226;2024-02-26T14:52:47;17.40;63.70
360;DHT22;168;48.872;9.226;2024-02-26T14:55:14;17.30;64.50
360;DHT22;168;48.872;9.226;2024-02-26T14:57:42;17.30;64.60
360;DHT22;168;48.872;9.226;2024-02-26T15:00:10;17.40;64.50
360;DHT22;168;48.872;9.226;2024-02-26T15:02:37;17.30;65.60
360;DHT22;168;48.872;9.226;2024-02-26T15:05:06;17.30;64.90
360;DHT22;168;48.872;9.226;2024-02-26T15:07:37;17.20;64.80
360;DHT22;168;48.872;9.226;2024-02-26T15:10:07;17.10;65.10
360;DHT22;168;48.872;9.226;2024-02-26T15:12:34;17.20;64.80
360;DHT22;168;48.872;9.226;2024-02-26T15:15:02;17.10;65.60
360;DHT22;168;48.872;9.226;2024-02-26T15:17:29;17.20;65.30
360;DHT22;168;48.872;9.226;2024-02-26T15:19:58;17.20;64.30
360;DHT22;168;48.872;9.226;2024-02-26T15:22:27;17.00;64.60
360;DHT22;168;48.872;9.226;2024-02-26T15:24:55;16.80;64.40
360;DHT22;168;48.872;9.226;2024-02-26T15:27:22;16.60;65.60
360;DHT22;168;48.872;9.226;2024-02-26T15:29:49;16.50;66.20
360;DHT22;168;48.872;9.226;2024-02-26T15:32:24;16.40;66.50
360;DHT22;168;48.872;9.226;2024-02-26T15:34:52;16.30;66.60
360;DHT22;168;48.872;9.226;2024-02-26T15:37:19;16.20;67.70
360;DHT22;168;48.872;9.226;2024-02-26T15:39:48;16.10;68.00
360;DHT22;168;48.872;9.226;2024-02-26T15:42:16;16.00;68.50
360;DHT22;168;48.872;9.226;2024-02-26T15:44:43;15.90;69.00
360;DHT22;168;48.872;9.226;2024-02-26T15:47:11;15.90;69.50
360;DHT22;168;48.872;9.226;2024-02-26T15:49:39;15.80;70.00
360;DHT22;168;48.872;9.226;2024-02-26T15:52:06;15.90;70.30
360;DHT22;168;48.872;9.226;2024-02-26T15:54:37;15.80;70.80
360;DHT22;168;48.872;9.226;2024-02-26T15:57:06;15.80;70.80
360;DHT22;168;48.872;9.226;2024-02-26T15:59:35;15.70;70.90
360;DHT22;168;48.872;9.226;2024-02-26T16:02:03;15.70;71.20
360;DHT22;168;48.872;9.226;2024-02-26T16:04:30;15.70;71.00
360;DHT22;168;48.872;9.226;2024-02-26T16:07:00;15.60;71.10
360;DHT22;168;48.872;9.226;2024-02-26T16:09:30;15.50;71.80
360;DHT22;168;48.872;9.226;2024-02-26T16:11:58;15.30;71.90
360;DHT22;168;48.872;9.226;2024-02-26T16:14:43;15.20;72.30
360;DHT22;168;48.872;9.226;2024-02-26T16:17:18;15.20;72.20
360;DHT22;168;48.872;9.226;2024-02-26T16:19:48;15.10;71.10
360;DHT22;168;48.872;9.226;2024-02-26T16:22:17;15.10;71.00
360;DHT22;168;48.872;9.226;2024-02-26T16:24:44;15.00;70.30
360;DHT22;168;48.872;9.226;2024-02-26T16:27:11;14.90;69.00
360;DHT22;168;48.872;9.226;2024-02-26T16:29:41;14.80;68.00
360;DHT22;168;48.872;9.226;2024-02-26T16:32:08;14.70;68.30
360;DHT22;168;48.872;9.226;2024-02-26T16:34:36;14.60;68.30
360;DHT22;168;48.872;9.226;2024-02-26T16:37:08;14.40;68.70
360;DHT22;168;48.872;9.226;2024-02-26T16:39:36;14.40;68.20
360;DHT22;168;48.872;9.226;2024-02-26T16:42:04;14.30;68.40
360;DHT22;168;48.872;9.226;2024-02-26T16:44:33;14.30;68.50